Time;durP1;ratioP1;P1;durP2;ratioP2;P2;SDS_P1;SDS_P2;PMS_P1;PMS_P2;Temp;Humidity;BMP_temperature;BMP_pressure;BME280_temperature;BME280_humidity;BME280_pressure;Samples;Min_cycle;Max_cycle;Signal;HPM_P1;HPM_P2
2022/11/06 00:01:14;;;;;;;24.53;12.60;;;7.30;97.90;;;;;;4977922;28;20221;-65
2022/11/06 00:03:40;;;;;;;24.80;12.27;;;7.20;25.00;;;;;;4970321;28;20241;-66
2022/11/06 00:06:56;;;;;;;16.20;10.53;;;7.20;73.40;;;;;;4969069;28;20492;-66
2022/11/06 00:08:59;;;;;;;16.60;10.97;;;7.20;99.90;;;;;;4984186;28;20472;-66
2022/11/06 00:11:24;;;;;;;30.20;12.23;;;7.30;99.90;;;;;;4969505;28;20513;-66
2022/11/06 00:13:53;;;;;;;69.10;14.77;;;7.30;99.90;;;;;;4969076;28;20484;-66
2022/11/06 00:16:19;;;;;;;34.80;11.43;;;7.20;99.90;;;;;;4963892;28;20300;-66
2022/11/06 00:18:46;;;;;;;20.37;10.90;;;7.20;99.90;;;;;;4960982;28;20434;-66
2022/11/06 00:21:20;;;;;;;20.53;11.10;;;7.20;99.90;;;;;;4967027;28;20544;-66
2022/11/06 00:23:47;;;;;;;19.50;10.60;;;7.20;99.90;;;;;;4969782;28;20455;-66
2022/11/06 00:26:24;;;;;;;22.47;11.83;;;7.10;99.90;;;;;;4969706;28;20484;-66
2022/11/06 00:28:50;;;;;;;19.10;11.53;;;7.00;99.90;;;;;;4963635;28;20425;-66
2022/11/06 00:31:20;;;;;;;19.63;10.47;;;6.90;99.90;;;;;;4957255;28;20448;-66
2022/11/06 00:33:46;;;;;;;17.80;10.40;;;6.80;1.00;;;;;;4967947;28;20476;-66
2022/11/06 00:36:18;;;;;;;17.10;8.57;;;6.80;1.00;;;;;;4970424;28;20945;-66
2022/11/06 00:38:44;;;;;;;15.53;9.27;;;6.80;1.00;;;;;;4963736;28;20440;-66
2022/11/06 00:41:12;;;;;;;21.10;9.50;;;6.80;99.90;;;;;;4976454;28;20834;-66
2022/11/06 00:43:38;;;;;;;20.63;9.10;;;6.80;99.90;;;;;;4965797;28;20436;-66
2022/11/06 00:46:05;;;;;;;14.37;8.37;;;;;;;;;;4968442;28;20460;-66
2022/11/06 00:48:32;;;;;;;14.90;8.73;;;6.80;23.60;;;;;;4966873;28;20580;-66
2022/11/06 00:51:08;;;;;;;22.27;9.50;;;6.90;1.00;;;;;;4969481;28;21024;-64
2022/11/06 00:53:34;;;;;;;11.40;9.50;;;6.90;34.90;;;;;;4954770;28;20487;-66
2022/11/06 00:56:08;;;;;;;11.70;10.40;;;7.00;98.70;;;;;;4962527;28;20453;-66
2022/11/06 00:58:34;;;;;;;14.27;10.23;;;6.90;99.90;;;;;;4969713;28;20207;-66
2022/11/06 01:01:17;;;;;;;19.10;11.33;;;6.90;99.90;;;;;;4961491;28;20497;-66
2022/11/06 01:03:45;;;;;;;15.43;9.60;;;7.00;1.00;;;;;;4957314;28;20444;-66
2022/11/06 01:06:17;;;;;;;18.80;10.70;;;7.10;1.00;;;;;;4969149;28;20440;-66
2022/11/06 01:08:43;;;;;;;14.00;10.40;;;6.90;1.00;;;;;;4963879;28;20437;-67
2022/11/06 01:11:13;;;;;;;18.90;11.17;;;6.80;99.90;;;;;;4966933;28;20448;-66
2022/11/06 01:13:39;;;;;;;16.63;11.30;;;6.70;1.00;;;;;;4972093;28;20472;-66
2022/11/06 01:16:08;;;;;;;17.70;10.60;;;6.70;1.00;;;;;;4971731;28;20445;-66
2022/11/06 01:18:34;;;;;;;26.60;11.10;;;6.80;16.90;;;;;;4970250;28;20513;-66
2022/11/06 01:21:07;;;;;;;16.57;10.60;;;6.80;1.00;;;;;;4971291;28;20441;-66
2022/11/06 01:23:33;;;;;;;13.73;9.97;;;6.80;1.00;;;;;;4972260;28;20444;-66
2022/11/06 01:26:04;;;;;;;14.03;9.97;;;6.80;1.00;;;;;;4962203;28;20453;-66
2022/11/06 01:28:30;;;;;;;13.70;10.20;;;6.80;1.00;;;;;;4969761;28;20433;-66
2022/11/06 01:30:56;;;;;;;17.40;10.57;;;6.90;1.00;;;;;;4964280;28;20948;-66
2022/11/06 01:33:22;;;;;;;13.60;9.70;;;7.00;1.00;;;;;;4970230;28;20464;-66
2022/11/06 01:35:49;;;;;;;18.90;10.50;;;7.00;1.00;;;;;;4971313;28;20193;-66
2022/11/06 01:38:16;;;;;;;18.13;9.10;;;6.90;1.00;;;;;;4970992;28;20744;-64
2022/11/06 01:40:44;;;;;;;13.77;10.00;;;6.80;1.00;;;;;;4970890;28;20436;-64
2022/11/06 01:43:22;;;;;;;15.37;9.80;;;6.70;1.00;;;;;;4969117;28;20468;-65
2022/11/06 01:45:53;;;;;;;20.33;10.50;;;6.80;1.00;;;;;;4971382;28;20455;-65
2022/11/06 01:48:27;;;;;;;15.20;11.13;;;6.70;99.90;;;;;;4958616;28;20449;-64
2022/11/06 01:50:57;;;;;;;24.80;12.53;;;6.70;99.90;;;;;;4970630;28;21196;-65
2022/11/06 01:53:23;;;;;;;13.53;10.30;;;6.50;1.00;;;;;;4971537;28;20484;-64
2022/11/06 01:55:53;;;;;;;17.20;11.33;;;6.50;1.00;;;;;;4971298;28;20471;-64
2022/11/06 01:58:21;;;;;;;15.40;10.27;;;6.60;1.00;;;;;;4963020;28;20517;-65
2022/11/06 02:00:48;;;;;;;11.30;8.67;;;6.70;1.00;;;;;;4968712;28;20865;-64
2022/11/06 02:03:14;;;;;;;20.10;10.07;;;6.80;99.90;;;;;;4964956;28;20859;-64
2022/11/06 02:05:40;;;;;;;20.13;9.20;;;6.90;99.90;;;;;;4971215;28;20429;-64
2022/11/06 02:08:10;;;;;;;14.37;9.97;;;6.90;99.90;;;;;;4979096;28;20436;-64
2022/11/06 02:10:36;;;;;;;14.57;10.07;;;6.80;48.80;;;;;;4970598;28;20437;-64
2022/11/06 02:13:05;;;;;;;21.20;10.50;;;6.70;1.00;;;;;;4965281;28;20524;-64
2022/11/06 02:16:08;;;;;;;17.97;10.50;;;6.70;1.00;;;;;;4967899;28;20922;-64
2022/11/06 02:19:11;;;;;;;17.87;10.80;;;6.80;1.00;;;;;;4948707;28;20479;-64
2022/11/06 02:22:15;;;;;;;14.33;8.83;;;6.80;99.90;;;;;;4963692;28;20413;-65
2022/11/06 02:25:07;;;;;;;14.50;9.50;;;6.80;1.00;;;;;;4962694;28;20444;-64
2022/11/06 02:27:34;;;;;;;15.63;10.03;;;6.80;1.00;;;;;;4970465;28;20457;-64
2022/11/06 02:30:06;;;;;;;24.23;10.17;;;6.70;1.00;;;;;;4970364;28;20520;-64
2022/11/06 02:32:37;;;;;;;34.50;11.10;;;6.60;99.90;;;;;;4965185;28;20470;-65
2022/11/06 02:35:15;;;;;;;18.77;10.07;;;6.80;1.00;;;;;;4969259;28;20460;-64
2022/11/06 02:37:44;;;;;;;14.60;9.50;;;6.80;80.50;;;;;;4967743;28;20453;-64
2022/11/06 02:40:11;;;;;;;36.67;11.13;;;6.80;1.00;;;;;;4966349;28;20524;-66
2022/11/06 02:42:42;;;;;;;28.17;12.03;;;6.80;1.00;;;;;;4970492;28;20457;-64
2022/11/06 02:45:10;;;;;;;18.23;11.10;;;6.80;1.00;;;;;;4970231;28;20525;-66
2022/11/06 02:47:39;;;;;;;24.43;10.17;;;6.80;1.00;;;;;;4970984;28;20835;-66
2022/11/06 02:50:23;;;;;;;19.63;10.00;;;6.70;1.00;;;;;;4981976;28;20797;-66
2022/11/06 02:53:00;;;;;;;22.00;11.73;;;6.80;99.90;;;;;;4970749;28;20446;-66
2022/11/06 02:55:36;;;;;;;19.97;11.50;;;6.70;1.00;;;;;;4978134;28;20433;-64
2022/11/06 02:58:26;;;;;;;23.13;11.87;;;6.80;1.00;;;;;;4973415;28;20431;-65
2022/11/06 03:00:57;;;;;;;27.60;11.40;;;6.70;99.90;;;;;;4971216;28;20902;-64
2022/11/06 03:03:32;;;;;;;26.50;12.57;;;6.70;99.90;;;;;;4966113;28;20450;-64
2022/11/06 03:06:05;;;;;;;24.90;14.07;;;6.70;1.00;;;;;;4974468;28;20514;-64
2022/11/06 03:08:39;;;;;;;23.80;12.70;;;6.70;13.90;;;;;;4974633;28;20425;-64
2022/11/06 03:11:14;;;;;;;20.43;11.53;;;6.60;99.90;;;;;;4965999;28;20940;-64
2022/11/06 03:13:46;;;;;;;19.33;11.10;;;6.70;99.90;;;;;;4969998;28;20983;-64
2022/11/06 03:16:35;;;;;;;19.37;10.33;;;6.60;1.00;;;;;;4981034;28;20501;-64
2022/11/06 03:19:26;;;;;;;23.30;11.47;;;6.40;99.90;;;;;;4961084;28;20968;-64
2022/11/06 03:22:22;;;;;;;18.90;10.67;;;6.30;1.00;;;;;;4974766;28;20421;-65
2022/11/06 03:25:13;;;;;;;16.50;10.07;;;6.40;99.90;;;;;;4971123;28;20442;-66
2022/11/06 03:27:48;;;;;;;16.63;10.23;;;6.40;99.90;;;;;;4982565;28;20459;-66
2022/11/06 03:30:14;;;;;;;18.77;11.03;;;6.50;99.90;;;;;;4972970;28;20470;-66
2022/11/06 03:32:50;;;;;;;12.87;9.47;;;6.50;99.90;;;;;;4967726;28;20424;-66
2022/11/06 03:35:27;;;;;;;16.20;10.43;;;6.60;99.90;;;;;;4969856;28;20233;-66
2022/11/06 03:37:58;;;;;;;15.13;9.90;;;6.60;1.00;;;;;;4971796;28;20495;-66
2022/11/06 03:40:28;;;;;;;12.03;8.83;;;6.70;99.90;;;;;;4971172;28;20878;-66
2022/11/06 03:42:58;;;;;;;19.67;10.93;;;6.70;99.90;;;;;;4966832;28;20849;-66
2022/11/06 03:45:26;;;;;;;26.00;10.50;;;6.70;1.00;;;;;;4973314;28;20440;-66
2022/11/06 03:48:18;;;;;;;19.73;9.13;;;6.60;99.90;;;;;;4974061;28;20468;-66
2022/11/06 03:50:55;;;;;;;21.00;10.13;;;6.60;99.90;;;;;;4973478;28;20440;-66
2022/11/06 03:53:54;;;;;;;14.80;9.20;;;6.50;1.00;;;;;;4973003;28;20452;-64
2022/11/06 03:56:27;;;;;;;12.30;9.40;;;6.60;1.00;;;;;;4972207;28;21043;-64
2022/11/06 03:58:54;;;;;;;11.57;8.80;;;6.70;1.00;;;;;;4972522;28;20887;-64
2022/11/06 04:01:26;;;;;;;27.70;9.40;;;6.70;99.90;;;;;;4972016;28;20931;-64
2022/11/06 04:04:05;;;;;;;15.10;10.57;;;6.20;21.80;;;;;;4973299;28;20495;-64
2022/11/06 04:06:45;;;;;;;13.27;9.80;;;6.30;1.00;;;;;;4972556;28;21194;-64
2022/11/06 04:15:08;;;;;;;20.87;8.93;;;6.10;99.90;;;;;;4993291;28;20466;-66
2022/11/06 04:17:34;;;;;;;19.83;11.23;;;5.60;99.90;;;;;;4990425;28;20458;-66
2022/11/06 04:20:02;;;;;;;21.63;9.30;;;5.40;99.90;;;;;;4992308;28;20487;-66
2022/11/06 04:22:54;;;;;;;32.33;8.73;;;5.40;99.90;;;;;;4964429;28;20178;-66
2022/11/06 04:29:07;;;;;;;13.33;9.33;;;5.50;99.90;;;;;;4970341;28;20455;-66
2022/11/06 04:31:41;;;;;;;18.37;10.10;;;5.50;1.00;;;;;;4966436;28;21182;-66
2022/11/06 04:34:32;;;;;;;13.10;8.80;;;5.70;1.00;;;;;;4972720;28;20534;-65
2022/11/06 04:37:24;;;;;;;16.43;9.27;;;6.10;99.90;;;;;;4966834;28;20759;-66
2022/11/06 04:39:59;;;;;;;11.90;8.20;;;6.20;99.90;;;;;;4971965;28;20464;-66
2022/11/06 04:42:33;;;;;;;16.83;9.50;;;6.30;5.90;;;;;;4971902;28;20412;-66
2022/11/06 04:45:16;;;;;;;20.50;10.40;;;6.40;1.00;;;;;;4972055;28;20437;-64
2022/11/06 04:47:42;;;;;;;20.47;10.10;;;6.00;1.00;;;;;;4965924;28;20551;-65
2022/11/06 04:50:10;;;;;;;24.43;13.87;;;5.70;99.90;;;;;;4975801;28;20459;-64
2022/11/06 04:52:37;;;;;;;12.53;10.30;;;5.80;99.90;;;;;;4974290;28;20774;-64
2022/11/06 04:55:04;;;;;;;37.00;10.73;;;5.90;99.90;;;;;;4980817;28;20468;-64
2022/11/06 04:57:29;;;;;;;23.50;9.63;;;6.10;99.90;;;;;;4972367;28;20448;-65
2022/11/06 04:59:55;;;;;;;21.13;8.67;;;5.80;99.90;;;;;;4967332;28;20445;-65
2022/11/06 05:02:22;;;;;;;20.27;9.40;;;5.70;99.90;;;;;;4970890;28;20194;-65
2022/11/06 05:04:47;;;;;;;14.03;8.10;;;5.60;1.00;;;;;;4976150;28;20468;-65
2022/11/06 05:07:14;;;;;;;16.10;10.00;;;5.60;1.00;;;;;;4966813;28;20488;-65
2022/11/06 05:09:40;;;;;;;30.13;9.40;;;5.50;1.00;;;;;;4972099;28;20252;-65
2022/11/06 05:12:06;;;;;;;16.97;9.13;;;5.50;1.00;;;;;;4971802;28;21014;-65
2022/11/06 05:14:32;;;;;;;25.43;9.90;;;5.60;1.00;;;;;;4971462;28;20472;-65
2022/11/06 05:16:58;;;;;;;14.90;8.80;;;5.60;1.00;;;;;;4963545;28;20821;-65
2022/11/06 05:19:24;;;;;;;32.77;10.37;;;5.60;1.00;;;;;;4970244;28;20185;-65
2022/11/06 05:24:34;;;;;;;29.23;8.60;;;5.60;99.90;;;;;;4972137;28;20473;-65
2022/11/06 05:27:00;;;;;;;14.13;8.60;;;5.50;1.00;;;;;;4979905;28;20448;-66
2022/11/06 05:29:26;;;;;;;15.70;7.57;;;5.20;1.00;;;;;;4971556;28;20213;-66
2022/11/06 05:31:52;;;;;;;16.73;8.47;;;5.20;1.00;;;;;;4963627;28;20181;-66
2022/11/06 05:34:17;;;;;;;20.97;9.00;;;5.10;1.00;;;;;;4962519;28;20488;-66
2022/11/06 05:36:43;;;;;;;37.17;8.20;;;5.20;1.00;;;;;;4964562;28;20198;-64
2022/11/06 05:39:09;;;;;;;18.90;9.87;;;5.10;1.00;;;;;;4971388;28;20233;-64
2022/11/06 05:41:35;;;;;;;23.10;8.93;;;5.00;1.00;;;;;;4956937;28;20194;-64
2022/11/06 05:44:01;;;;;;;14.83;8.10;;;5.10;1.00;;;;;;4970240;28;20538;-64
2022/11/06 05:46:27;;;;;;;53.27;9.33;;;5.20;1.00;;;;;;4971352;28;20472;-64
2022/11/06 05:48:52;;;;;;;36.73;9.50;;;5.10;1.00;;;;;;4965392;28;20678;-64
2022/11/06 05:51:19;;;;;;;26.03;10.03;;;5.10;1.00;;;;;;4970313;28;20643;-64
2022/11/06 05:53:44;;;;;;;33.23;8.70;;;5.30;1.00;;;;;;4971248;28;20200;-64
2022/11/06 05:56:10;;;;;;;23.93;8.27;;;5.30;1.00;;;;;;4970077;28;20905;-64
2022/11/06 05:58:36;;;;;;;44.90;8.70;;;5.40;1.00;;;;;;4973587;28;20181;-64
2022/11/06 06:01:02;;;;;;;33.97;9.97;;;5.30;1.00;;;;;;4969960;28;20177;-64
2022/11/06 06:03:28;;;;;;;16.93;7.93;;;5.20;1.00;;;;;;4971609;28;20968;-65
2022/11/06 06:05:54;;;;;;;29.73;8.00;;;5.40;1.00;;;;;;4969939;28;20687;-65
2022/11/06 06:08:19;;;;;;;86.37;10.50;;;5.30;1.00;;;;;;4970885;28;20197;-65
2022/11/06 06:10:46;;;;;;;32.33;9.70;;;5.10;1.00;;;;;;4958186;28;20269;-66
2022/11/06 06:13:12;;;;;;;62.57;10.33;;;4.90;1.00;;;;;;4971386;28;20718;-65
2022/11/06 06:15:39;;;;;;;29.27;9.03;;;5.00;1.00;;;;;;4966858;28;20713;-65
2022/11/06 06:18:06;;;;;;;30.23;9.87;;;5.10;1.00;;;;;;4964155;28;20447;-65
2022/11/06 06:20:32;;;;;;;20.17;7.50;;;5.10;1.00;;;;;;4958946;28;21218;-65
2022/11/06 06:22:58;;;;;;;20.33;8.07;;;5.10;1.00;;;;;;4969505;28;20432;-65
2022/11/06 06:25:26;;;;;;;35.67;8.67;;;5.30;1.00;;;;;;4966770;28;20181;-65
2022/11/06 06:27:51;;;;;;;15.60;8.20;;;5.30;1.00;;;;;;4966656;28;20453;-65
2022/11/06 06:30:18;;;;;;;41.07;9.03;;;5.30;1.00;;;;;;4973354;28;20482;-65
2022/11/06 06:32:43;;;;;;;32.03;8.17;;;5.30;1.00;;;;;;4968440;28;20938;-65
2022/11/06 06:35:10;;;;;;;35.10;8.83;;;5.30;1.00;;;;;;4976358;28;20488;-65
2022/11/06 06:37:35;;;;;;;14.40;7.57;;;5.20;1.00;;;;;;4972806;28;20306;-65
2022/11/06 06:40:01;;;;;;;24.57;8.20;;;5.10;1.00;;;;;;4980960;28;20456;-65
2022/11/06 06:42:28;;;;;;;37.30;8.43;;;5.00;1.00;;;;;;4969807;28;20197;-65
2022/11/06 06:44:53;;;;;;;31.20;8.03;;;5.10;1.00;;;;;;4969671;28;20659;-65
2022/11/06 06:47:19;;;;;;;17.13;8.00;;;5.30;1.00;;;;;;4969478;28;20554;-65
2022/11/06 06:49:45;;;;;;;33.67;8.80;;;5.20;1.00;;;;;;4970331;28;20216;-65
2022/11/06 06:52:11;;;;;;;9.63;7.60;;;5.10;1.00;;;;;;4974540;28;20185;-65
2022/11/06 06:54:37;;;;;;;20.60;8.40;;;5.30;1.00;;;;;;4968055;28;20449;-64
2022/11/06 06:57:03;;;;;;;16.33;7.53;;;5.40;1.00;;;;;;4970305;28;20464;-65
2022/11/06 06:59:29;;;;;;;60.50;11.07;;;5.40;1.00;;;;;;4969361;28;20184;-64
2022/11/06 07:01:56;;;;;;;17.90;8.33;;;5.30;1.00;;;;;;4969407;28;20436;-65
2022/11/06 07:04:22;;;;;;;21.50;7.80;;;5.30;1.00;;;;;;4969638;28;20448;-65
2022/11/06 07:06:48;;;;;;;23.13;8.97;;;5.30;1.00;;;;;;4974941;28;20440;-64
2022/11/06 07:09:14;;;;;;;13.60;7.97;;;5.30;1.00;;;;;;4975206;28;20790;-67
2022/11/06 07:11:40;;;;;;;14.00;6.60;;;5.30;1.00;;;;;;4984466;28;20272;-66
2022/11/06 07:14:06;;;;;;;14.07;7.60;;;5.30;1.00;;;;;;4970907;28;20285;-66
2022/11/06 07:16:31;;;;;;;16.83;7.97;;;5.50;1.00;;;;;;4969251;28;20196;-66
2022/11/06 07:18:58;;;;;;;16.53;7.80;;;5.50;1.00;;;;;;4969990;28;20433;-66
2022/11/06 07:21:24;;;;;;;12.53;7.27;;;5.60;1.00;;;;;;4969250;28;20607;-66
2022/11/06 07:23:50;;;;;;;14.23;7.90;;;5.60;1.00;;;;;;4970850;28;20447;-66
2022/11/06 07:26:16;;;;;;;11.43;7.70;;;5.40;1.00;;;;;;4968800;28;20499;-65
2022/11/06 07:28:41;;;;;;;19.77;7.90;;;5.30;1.00;;;;;;4969648;28;20930;-65
2022/11/06 07:31:08;;;;;;;20.33;7.97;;;5.30;1.00;;;;;;4975856;28;20182;-65
2022/11/06 07:33:34;;;;;;;15.30;8.43;;;5.30;1.00;;;;;;4970483;28;20289;-65
2022/11/06 07:36:09;;;;;;;11.43;7.07;;;5.30;1.00;;;;;;4982341;28;20441;-65
2022/11/06 07:38:37;;;;;;;23.67;8.37;;;5.40;1.00;;;;;;4968518;28;20428;-65
2022/11/06 07:41:12;;;;;;;26.83;8.60;;;5.30;1.00;;;;;;4960347;28;20429;-65
2022/11/06 07:43:39;;;;;;;11.70;7.57;;;5.30;1.00;;;;;;4976234;28;20442;-66
2022/11/06 07:46:08;;;;;;;23.13;8.60;;;5.30;1.00;;;;;;4978096;28;20483;-66
2022/11/06 07:48:34;;;;;;;18.20;8.03;;;5.10;1.00;;;;;;4979286;28;20435;-66
2022/11/06 07:51:05;;;;;;;12.57;7.07;;;5.20;1.00;;;;;;4977629;28;20792;-66
2022/11/06 07:53:31;;;;;;;22.90;7.47;;;5.10;1.00;;;;;;4973581;28;20213;-65
2022/11/06 07:55:57;;;;;;;15.80;7.57;;;5.10;1.00;;;;;;4973882;28;20453;-65
2022/11/06 07:58:24;;;;;;;12.33;7.33;;;5.00;1.00;;;;;;4973954;28;20211;-66
2022/11/06 08:00:52;;;;;;;10.10;7.30;;;5.00;1.00;;;;;;4971386;28;20433;-66
2022/11/06 08:03:19;;;;;;;11.50;6.83;;;5.00;1.00;;;;;;4968875;28;20436;-66
2022/11/06 08:05:45;;;;;;;11.43;8.03;;;5.00;1.00;;;;;;4973316;28;20486;-65
2022/11/06 08:08:12;;;;;;;10.37;6.63;;;5.10;1.00;;;;;;4966638;28;20627;-66
2022/11/06 08:10:42;;;;;;;19.67;6.67;;;5.10;1.00;;;;;;4971943;28;20455;-66
2022/11/06 08:13:14;;;;;;;12.60;6.53;;;5.30;1.00;;;;;;4967933;28;20422;-66
2022/11/06 08:15:40;;;;;;;10.93;6.10;;;5.20;1.00;;;;;;4971026;28;20440;-66
2022/11/06 08:18:07;;;;;;;11.90;6.07;;;5.00;1.00;;;;;;4964835;28;21199;-68
2022/11/06 08:20:34;;;;;;;9.93;6.90;;;5.10;1.00;;;;;;4962888;28;20499;-67
2022/11/06 08:23:02;;;;;;;16.00;7.17;;;5.20;1.00;;;;;;4963538;28;20464;-68
2022/11/06 08:25:29;;;;;;;19.57;7.03;;;5.00;1.00;;;;;;4969769;28;20506;-68
2022/11/06 08:27:55;;;;;;;17.37;7.03;;;4.70;1.00;;;;;;4972828;28;20460;-68
2022/11/06 08:30:21;;;;;;;8.00;6.70;;;4.40;1.00;;;;;;4969552;28;20432;-67
2022/11/06 08:32:47;;;;;;;22.70;7.60;;;4.30;1.00;;;;;;4974737;28;20516;-68
2022/11/06 08:35:13;;;;;;;29.23;7.80;;;4.50;1.00;;;;;;4973334;28;20524;-67
2022/11/06 08:37:39;;;;;;;10.30;6.37;;;4.80;1.00;;;;;;4974361;28;20622;-68
2022/11/06 08:40:05;;;;;;;12.10;7.40;;;5.00;1.00;;;;;;4967621;28;20232;-68
2022/11/06 08:42:30;;;;;;;13.83;6.30;;;5.00;1.00;;;;;;4965360;28;20231;-67
2022/11/06 08:44:56;;;;;;;11.77;6.80;;;4.80;1.00;;;;;;4961434;28;20434;-68
2022/11/06 08:47:22;;;;;;;13.87;6.87;;;4.90;1.00;;;;;;4959628;28;20787;-67
2022/11/06 08:49:47;;;;;;;15.77;8.10;;;5.00;1.00;;;;;;4973138;28;20193;-68
2022/11/06 08:52:13;;;;;;;8.70;6.50;;;5.10;1.00;;;;;;4969422;28;20173;-68
2022/11/06 08:54:39;;;;;;;11.70;7.43;;;5.20;1.00;;;;;;4961588;28;20210;-68
2022/11/06 08:57:04;;;;;;;16.27;7.90;;;5.20;1.00;;;;;;4967342;28;20303;-68
2022/11/06 08:59:31;;;;;;;15.60;7.30;;;5.20;1.00;;;;;;4954144;28;20213;-68
2022/11/06 09:01:57;;;;;;;11.13;6.10;;;5.30;1.00;;;;;;4971959;28;20180;-67
2022/11/06 09:04:23;;;;;;;17.83;6.93;;;4.80;1.00;;;;;;4965188;28;20491;-68
2022/11/06 09:06:48;;;;;;;20.60;8.47;;;4.50;1.00;;;;;;4962422;28;20214;-67
2022/11/06 09:09:14;;;;;;;13.43;7.70;;;4.40;1.00;;;;;;4970161;28;20200;-68
2022/11/06 09:11:39;;;;;;;21.50;8.03;;;4.10;1.00;;;;;;4962569;28;20194;-68
2022/11/06 09:14:05;;;;;;;9.70;6.63;;;4.00;1.00;;;;;;4964804;28;20284;-67
2022/11/06 09:16:31;;;;;;;14.93;7.07;;;4.30;1.00;;;;;;4970037;28;20205;-67
2022/11/06 09:18:57;;;;;;;30.23;10.70;;;4.70;1.00;;;;;;4963010;28;20264;-68
2022/11/06 09:21:23;;;;;;;11.73;7.33;;;4.90;1.00;;;;;;4963863;28;20189;-67
2022/11/06 09:23:49;;;;;;;19.53;9.20;;;5.00;1.00;;;;;;4959808;28;20250;-67
2022/11/06 09:26:15;;;;;;;17.70;7.57;;;5.10;1.00;;;;;;4959871;28;20444;-67
2022/11/06 09:28:41;;;;;;;11.93;7.70;;;5.20;1.00;;;;;;4965413;28;20828;-67
2022/11/06 09:31:07;;;;;;;8.00;7.00;;;5.10;1.00;;;;;;4961510;28;20440;-67
2022/11/06 09:33:33;;;;;;;16.53;7.40;;;5.00;1.00;;;;;;4953806;28;20186;-67
2022/11/06 09:35:58;;;;;;;13.13;7.70;;;5.20;1.00;;;;;;4965317;28;20459;-68
2022/11/06 09:38:24;;;;;;;17.33;8.43;;;5.30;1.00;;;;;;4962190;28;20188;-68
2022/11/06 09:40:52;;;;;;;9.43;7.43;;;5.30;1.00;;;;;;4961088;28;20176;-67
2022/11/06 09:43:51;;;;;;;14.90;7.77;;;5.40;1.00;;;;;;4968270;28;20215;-67
2022/11/06 09:46:34;;;;;;;11.60;7.07;;;5.60;1.00;;;;;;4965444;28;20460;-67
2022/11/06 09:49:11;;;;;;;14.30;7.97;;;5.80;1.00;;;;;;4961217;28;20906;-68
2022/11/06 09:51:59;;;;;;;8.30;7.00;;;6.00;1.00;;;;;;4958275;28;20516;-68
2022/11/06 09:54:30;;;;;;;8.80;7.00;;;6.20;1.00;;;;;;4957139;28;20492;-67
2022/11/06 09:57:10;;;;;;;7.20;6.37;;;6.10;1.00;;;;;;4967803;28;20491;-68
2022/11/06 09:59:40;;;;;;;6.73;6.03;;;6.10;1.00;;;;;;4959570;28;20926;-67
2022/11/06 10:02:32;;;;;;;7.33;5.80;;;6.20;1.00;;;;;;4955564;28;20823;-67
2022/11/06 10:05:10;;;;;;;8.93;7.30;;;6.40;1.00;;;;;;4947854;28;20821;-68
2022/11/06 10:07:39;;;;;;;8.60;6.87;;;6.20;1.00;;;;;;4950987;28;20457;-67
2022/11/06 10:10:12;;;;;;;10.00;7.70;;;6.20;1.00;;;;;;4948252;28;20471;-67
2022/11/06 10:12:53;;;;;;;9.53;6.80;;;6.10;1.00;;;;;;4948606;28;20426;-68
2022/11/06 10:15:26;;;;;;;9.40;6.90;;;6.40;1.00;;;;;;4948316;29;20457;-67
2022/11/06 10:18:30;;;;;;;7.40;6.23;;;6.50;1.00;;;;;;4953065;28;20456;-67
2022/11/06 10:21:21;;;;;;;9.00;6.90;;;6.70;1.00;;;;;;4962203;28;20941;-67
2022/11/06 10:23:51;;;;;;;8.13;6.33;;;6.80;99.90;;;;;;4972125;28;20512;-68
2022/11/06 10:26:18;;;;;;;13.57;6.53;;;6.90;99.90;;;;;;4968937;28;20452;-67
2022/11/06 10:29:02;;;;;;;16.40;8.60;;;6.80;99.90;;;;;;4969865;28;20453;-67
2022/11/06 10:31:42;;;;;;;8.23;6.23;;;6.70;99.90;;;;;;4973039;28;20468;-68
2022/11/06 10:34:29;;;;;;;9.23;6.67;;;6.60;99.90;;;;;;4965854;28;20468;-68
2022/11/06 10:37:17;;;;;;;9.77;6.70;;;6.50;99.90;;;;;;4968314;28;20487;-68
2022/11/06 10:39:45;;;;;;;9.20;6.70;;;6.40;1.00;;;;;;4964057;28;20789;-68
2022/11/06 10:42:29;;;;;;;11.50;6.93;;;6.50;1.00;;;;;;4968741;28;20930;-68
2022/11/06 10:45:02;;;;;;;14.50;7.07;;;6.50;1.00;;;;;;4967926;28;20928;-68
2022/11/06 10:47:34;;;;;;;11.90;7.83;;;6.80;1.00;;;;;;4969115;28;20452;-67
2022/11/06 10:50:03;;;;;;;10.20;7.37;;;7.00;99.90;;;;;;4963231;28;20450;-67
2022/11/06 10:52:51;;;;;;;9.97;7.83;;;7.10;99.90;;;;;;4976662;28;20945;-68
2022/11/06 10:55:29;;;;;;;9.77;6.33;;;7.30;99.90;;;;;;4970273;28;20559;-67
2022/11/06 10:58:02;;;;;;;8.83;6.60;;;7.40;99.90;;;;;;4969820;28;20471;-68
2022/11/06 11:00:28;;;;;;;8.83;6.30;;;7.40;3.00;;;;;;4970153;28;20500;-67
2022/11/06 11:03:03;;;;;;;16.63;7.47;;;7.40;1.00;;;;;;4966720;28;20433;-67
2022/11/06 11:05:40;;;;;;;21.37;8.00;;;7.30;1.00;;;;;;4968136;28;20177;-68
2022/11/06 11:08:26;;;;;;;35.43;10.63;;;7.30;6.80;;;;;;4971446;28;20503;-69
2022/11/06 11:10:52;;;;;;;23.40;9.50;;;7.40;1.00;;;;;;4967771;28;20436;-68
2022/11/06 11:13:20;;;;;;;21.90;8.47;;;7.50;1.00;;;;;;4972559;28;20445;-67
2022/11/06 11:15:46;;;;;;;11.63;7.67;;;7.60;1.00;;;;;;4974508;28;20216;-67
2022/11/06 11:18:12;;;;;;;17.43;8.10;;;7.50;99.90;;;;;;4973984;28;20853;-68
2022/11/06 11:20:40;;;;;;;170.70;24.53;;;7.40;1.00;;;;;;4971814;28;20464;-67
2022/11/06 11:23:06;;;;;;;58.23;11.80;;;7.60;1.00;;;;;;4972310;28;20186;-67
2022/11/06 11:25:32;;;;;;;34.23;9.83;;;7.70;1.00;;;;;;4973176;28;20942;-67
2022/11/06 11:27:58;;;;;;;25.80;6.87;;;7.70;1.00;;;;;;4973933;28;20264;-68
2022/11/06 11:30:25;;;;;;;12.50;6.40;;;7.80;99.90;;;;;;4972868;28;20433;-68
2022/11/06 11:32:58;;;;;;;7.47;6.77;;;7.80;33.80;;;;;;4972153;28;20515;-67
2022/11/06 11:35:29;;;;;;;9.00;6.97;;;7.40;99.90;;;;;;4971895;28;21030;-68
2022/11/06 11:38:10;;;;;;;8.60;7.57;;;7.30;1.00;;;;;;4970472;28;20973;-68
2022/11/06 11:40:37;;;;;;;8.13;7.27;;;7.20;99.90;;;;;;4969120;28;20424;-69
2022/11/06 11:43:18;;;;;;;8.93;6.67;;;7.10;99.90;;;;;;4965057;28;20457;-68
2022/11/06 11:46:04;;;;;;;8.80;6.87;;;7.20;99.90;;;;;;4964296;28;20463;-68
2022/11/06 11:49:04;;;;;;;9.80;7.63;;;7.30;99.90;;;;;;4970213;28;20797;-68
2022/11/06 11:51:37;;;;;;;8.97;7.33;;;7.30;99.90;;;;;;4971553;28;20508;-68
2022/11/06 11:54:17;;;;;;;8.90;7.57;;;7.30;99.90;;;;;;4976717;28;20463;-68
2022/11/06 11:56:48;;;;;;;8.60;7.00;;;7.10;1.00;;;;;;4970611;28;20456;-68
2022/11/06 11:59:41;;;;;;;8.30;7.40;;;7.20;1.00;;;;;;4977484;28;21077;-67
2022/11/06 12:02:20;;;;;;;14.90;7.60;;;7.20;1.00;;;;;;4967580;28;20456;-67
2022/11/06 12:04:51;;;;;;;11.47;6.90;;;7.40;1.00;;;;;;4967954;28;20429;-68
2022/11/06 12:07:30;;;;;;;8.70;7.50;;;7.30;99.90;;;;;;4970307;28;20455;-67
2022/11/06 12:09:58;;;;;;;10.70;7.70;;;6.90;1.00;;;;;;4966673;28;20452;-68
2022/11/06 12:12:35;;;;;;;7.50;6.73;;;6.90;1.00;;;;;;4975507;28;21030;-69
2022/11/06 12:15:17;;;;;;;6.83;6.17;;;7.20;1.00;;;;;;4970231;28;20549;-70
2022/11/06 12:17:45;;;;;;;8.53;7.27;;;7.30;1.00;;;;;;4969886;28;20444;-69
2022/11/06 12:20:18;;;;;;;6.80;5.80;;;7.30;1.00;;;;;;4968249;28;20894;-69
2022/11/06 12:22:46;;;;;;;7.63;6.63;;;7.10;1.00;;;;;;4971043;28;20429;-69
2022/11/06 12:25:18;;;;;;;6.17;5.40;;;7.00;1.00;;;;;;4971805;28;20431;-69
2022/11/06 12:27:48;;;;;;;7.50;6.20;;;6.90;1.00;;;;;;4962372;28;21984;-67
2022/11/06 12:30:17;;;;;;;6.77;6.17;;;6.90;1.00;;;;;;4936909;28;20439;-67
2022/11/06 12:33:14;;;;;;;6.77;6.07;;;6.90;1.00;;;;;;4944808;28;20997;-68
2022/11/06 12:35:59;;;;;;;7.17;6.00;;;7.00;1.00;;;;;;4945401;28;20476;-69
2022/11/06 12:38:43;;;;;;;6.83;6.07;;;7.00;1.00;;;;;;4949059;28;20842;-69
2022/11/06 12:41:14;;;;;;;6.87;6.13;;;7.10;1.00;;;;;;4947910;29;20881;-67
2022/11/06 12:43:45;;;;;;;6.70;5.90;;;7.30;1.00;;;;;;4952225;28;20531;-69
2022/11/06 12:47:00;;;;;;;7.37;6.33;;;7.40;1.00;;;;;;4950282;28;20481;-67
2022/11/06 12:49:47;;;;;;;9.67;6.80;;;7.40;1.00;;;;;;4957540;28;20472;-68
2022/11/06 12:52:37;;;;;;;7.90;7.10;;;7.70;1.00;;;;;;4950533;28;20541;-69
2022/11/06 12:55:27;;;;;;;10.53;7.10;;;7.60;1.00;;;;;;4938125;28;20523;-67
2022/11/06 12:58:12;;;;;;;9.80;7.60;;;7.70;1.00;;;;;;4946839;28;20872;-68
2022/11/06 13:01:15;;;;;;;8.17;7.10;;;7.80;99.90;;;;;;4951121;28;20776;-68
2022/11/06 13:04:05;;;;;;;43.47;9.37;;;7.90;99.90;;;;;;4948096;28;20438;-68
2022/11/06 13:06:56;;;;;;;12.13;6.73;;;8.10;99.90;;;;;;4950338;28;20457;-69
2022/11/06 13:09:34;;;;;;;37.43;8.93;;;8.40;99.90;;;;;;4949295;28;21067;-68
2022/11/06 13:12:02;;;;;;;12.73;7.40;;;8.50;1.00;;;;;;4944526;28;20441;-68
2022/11/06 13:14:35;;;;;;;35.63;8.37;;;8.50;1.00;;;;;;4950785;28;20581;-68
2022/11/06 13:17:20;;;;;;;53.63;10.70;;;8.70;1.00;;;;;;4949981;28;20907;-68
2022/11/06 13:20:07;;;;;;;74.83;12.40;;;8.80;99.90;;;;;;4944608;28;20433;-67
2022/11/06 13:22:47;;;;;;;24.00;8.20;;;8.70;99.90;;;;;;4948637;29;20433;-68
2022/11/06 13:25:50;;;;;;;9.07;6.00;;;8.80;99.90;;;;;;4951328;28;20927;-68
2022/11/06 13:28:25;;;;;;;29.50;8.83;;;8.70;99.90;;;;;;4948478;28;20441;-68
2022/11/06 13:30:52;;;;;;;47.23;11.10;;;8.70;99.90;;;;;;4949537;29;20523;-68